createdAt,value
2018-05-03T00:00:48.592Z,0
2018-05-03T00:01:49.976Z,0
2018-05-03T00:02:51.368Z,0
2018-05-03T00:03:52.757Z,0
2018-05-03T00:04:54.152Z,0
2018-05-03T00:05:55.543Z,0
2018-05-03T00:06:56.933Z,0
2018-05-03T00:07:58.321Z,0
2018-05-03T00:08:59.710Z,0
2018-05-03T00:10:01.096Z,0
2018-05-03T00:11:02.487Z,0
2018-05-03T00:12:03.871Z,0
2018-05-03T00:13:05.266Z,0
2018-05-03T00:14:06.652Z,0
2018-05-03T00:15:08.042Z,0
2018-05-03T00:16:09.491Z,0
2018-05-03T00:17:10.903Z,0
2018-05-03T00:18:12.293Z,0
2018-05-03T00:19:13.692Z,0
2018-05-03T00:20:15.082Z,0
2018-05-03T00:21:16.472Z,0
2018-05-03T00:22:17.861Z,0
2018-05-03T00:23:19.250Z,0
2018-05-03T00:24:20.633Z,0
2018-05-03T00:25:22.021Z,0
2018-05-03T00:26:23.411Z,0
2018-05-03T00:27:24.806Z,0
2018-05-03T00:28:26.197Z,0
2018-05-03T00:29:27.591Z,0
2018-05-03T00:30:28.976Z,0
2018-05-03T00:31:30.365Z,0
2018-05-03T00:32:31.754Z,0
2018-05-03T00:33:33.142Z,0
2018-05-03T00:34:34.536Z,0
2018-05-03T00:35:35.923Z,0
2018-05-03T00:36:37.315Z,0
2018-05-03T00:37:38.720Z,0
2018-05-03T00:38:40.105Z,0
2018-05-03T00:39:41.498Z,0
2018-05-03T00:40:42.891Z,0
2018-05-03T00:41:44.272Z,0
2018-05-03T00:42:45.658Z,0
2018-05-03T00:43:47.049Z,0
2018-05-03T00:44:48.436Z,0
2018-05-03T00:45:49.820Z,0
2018-05-03T00:46:51.208Z,0
2018-05-03T00:47:52.594Z,0
2018-05-03T00:48:53.992Z,0
2018-05-03T00:49:55.381Z,0
2018-05-03T00:50:56.771Z,0
2018-05-03T00:51:58.158Z,0
2018-05-03T00:52:59.552Z,0
2018-05-03T00:54:00.936Z,0
2018-05-03T00:55:02.327Z,0
2018-05-03T00:56:03.726Z,0
2018-05-03T00:57:05.114Z,0
2018-05-03T00:58:06.533Z,0
2018-05-03T00:59:07.915Z,0
2018-05-03T01:00:09.303Z,0
2018-05-03T01:01:10.692Z,0
2018-05-03T01:02:12.080Z,0
2018-05-03T01:03:13.473Z,0
2018-05-03T01:04:14.862Z,0
2018-05-03T01:05:16.287Z,0
2018-05-03T01:06:17.714Z,0
2018-05-03T01:07:19.115Z,0
2018-05-03T01:08:20.502Z,0
2018-05-03T01:09:21.891Z,0
2018-05-03T01:10:23.286Z,0
2018-05-03T01:11:24.670Z,0
2018-05-03T01:12:26.059Z,0
2018-05-03T01:13:27.450Z,0
2018-05-03T01:14:28.848Z,0
2018-05-03T01:15:30.237Z,0
2018-05-03T01:16:31.625Z,0
2018-05-03T01:17:33.016Z,0
2018-05-03T01:18:34.408Z,0
2018-05-03T01:19:35.790Z,0
2018-05-03T01:20:37.180Z,0
2018-05-03T01:21:38.571Z,0
2018-05-03T01:22:39.960Z,0
2018-05-03T01:23:41.350Z,0
2018-05-03T01:24:42.738Z,0
2018-05-03T01:25:44.148Z,0
2018-05-03T01:26:45.550Z,0
2018-05-03T01:27:46.929Z,0
2018-05-03T01:28:48.314Z,0
2018-05-03T01:29:49.705Z,0
2018-05-03T01:30:51.093Z,0
2018-05-03T01:31:52.483Z,0
2018-05-03T01:32:53.874Z,0
2018-05-03T01:33:55.261Z,0
2018-05-03T01:34:56.647Z,0
2018-05-03T01:35:58.039Z,0
2018-05-03T01:36:59.471Z,0
2018-05-03T01:38:00.864Z,0
2018-05-03T01:39:02.250Z,0
2018-05-03T01:40:03.638Z,0
2018-05-03T01:41:05.036Z,0
2018-05-03T01:42:06.415Z,0
2018-05-03T01:43:07.807Z,0
2018-05-03T01:44:09.194Z,0
2018-05-03T01:45:10.589Z,0
2018-05-03T01:46:11.971Z,0
2018-05-03T01:47:13.366Z,0
2018-05-03T01:48:14.763Z,0
2018-05-03T01:49:16.145Z,0
2018-05-03T01:50:17.533Z,0
2018-05-03T01:51:18.921Z,0
2018-05-03T01:52:20.314Z,0
2018-05-03T01:53:21.702Z,0
2018-05-03T01:54:23.092Z,0
2018-05-03T01:55:24.498Z,0
2018-05-03T01:56:25.883Z,0
2018-05-03T01:57:27.274Z,0
2018-05-03T01:58:28.665Z,0
2018-05-03T01:59:30.053Z,0
2018-05-03T02:00:31.443Z,0
2018-05-03T02:01:32.831Z,0
2018-05-03T02:02:34.232Z,0
2018-05-03T02:03:35.621Z,0
2018-05-03T02:04:37.012Z,0
2018-05-03T02:05:38.404Z,0
2018-05-03T02:06:39.791Z,0
2018-05-03T02:07:41.185Z,0
2018-05-03T02:08:42.567Z,0
2018-05-03T02:09:43.972Z,0
2018-05-03T02:10:45.358Z,0
2018-05-03T02:11:46.749Z,0
2018-05-03T02:12:48.134Z,0
2018-05-03T02:13:49.524Z,0
2018-05-03T02:14:50.917Z,0
2018-05-03T02:15:52.307Z,0
2018-05-03T02:16:53.710Z,0
2018-05-03T02:17:55.095Z,0
2018-05-03T02:18:56.488Z,0
2018-05-03T02:19:57.876Z,0
2018-05-03T02:20:59.267Z,0
2018-05-03T02:22:00.656Z,0
2018-05-03T02:23:02.052Z,0
2018-05-03T02:24:03.441Z,0
2018-05-03T02:25:04.836Z,0
2018-05-03T02:26:06.219Z,0
2018-05-03T02:27:07.608Z,0
2018-05-03T02:28:08.996Z,0
2018-05-03T02:29:10.389Z,0
2018-05-03T02:30:11.781Z,0
2018-05-03T02:31:13.207Z,0
2018-05-03T02:32:14.599Z,0
2018-05-03T02:33:15.989Z,0
2018-05-03T02:34:17.379Z,0
2018-05-03T02:35:18.769Z,0
2018-05-03T02:36:20.195Z,0
2018-05-03T02:37:21.571Z,0
2018-05-03T02:38:22.960Z,0
2018-05-03T02:39:24.355Z,0
2018-05-03T02:40:25.732Z,0
2018-05-03T02:41:27.121Z,0
2018-05-03T02:42:28.510Z,0
2018-05-03T02:43:29.893Z,0
2018-05-03T02:44:31.294Z,0
2018-05-03T02:45:32.689Z,0
2018-05-03T02:46:34.095Z,0
2018-05-03T02:47:35.558Z,0
2018-05-03T02:48:36.944Z,0
2018-05-03T02:49:38.336Z,0
2018-05-03T02:50:39.728Z,0
2018-05-03T02:51:41.119Z,0
2018-05-03T02:52:42.508Z,0
2018-05-03T02:53:43.900Z,0
2018-05-03T02:54:45.295Z,0
2018-05-03T02:55:46.688Z,0
2018-05-03T02:56:48.077Z,0
2018-05-03T02:57:49.463Z,0
2018-05-03T02:58:50.861Z,0
2018-05-03T02:59:52.299Z,0
2018-05-03T03:00:53.676Z,0
2018-05-03T03:01:55.065Z,0
2018-05-03T03:02:56.453Z,0
2018-05-03T03:03:57.850Z,0
2018-05-03T03:04:59.233Z,0
2018-05-03T03:06:00.626Z,0
2018-05-03T03:07:02.016Z,0
2018-05-03T03:08:03.405Z,0
2018-05-03T03:09:04.791Z,0
2018-05-03T03:10:06.181Z,0
2018-05-03T03:11:07.567Z,0
2018-05-03T03:12:08.961Z,0
2018-05-03T03:13:10.351Z,0
2018-05-03T03:14:11.739Z,0
2018-05-03T03:15:13.130Z,0
2018-05-03T03:16:14.519Z,0
2018-05-03T03:17:15.908Z,0
2018-05-03T03:18:17.301Z,0
2018-05-03T03:19:18.692Z,0
2018-05-03T03:20:20.088Z,0
2018-05-03T03:21:21.479Z,0
2018-05-03T03:22:22.868Z,0
2018-05-03T03:23:24.256Z,0
2018-05-03T03:24:25.646Z,0
2018-05-03T03:25:27.034Z,0
2018-05-03T03:26:28.424Z,0
2018-05-03T03:27:29.816Z,0
2018-05-03T03:28:31.204Z,0
2018-05-03T03:29:32.595Z,0
2018-05-03T03:30:33.977Z,0
2018-05-03T03:31:35.378Z,0
2018-05-03T03:32:36.773Z,0
2018-05-03T03:33:38.162Z,0
2018-05-03T03:34:39.549Z,0
2018-05-03T03:35:40.942Z,0
2018-05-03T03:36:42.331Z,0
2018-05-03T03:37:43.752Z,0
2018-05-03T03:38:45.156Z,0
2018-05-03T03:39:46.545Z,0
2018-05-03T03:40:47.932Z,0
2018-05-03T03:41:49.321Z,0
2018-05-03T03:42:50.731Z,0
2018-05-03T03:43:52.119Z,0
2018-05-03T03:44:53.515Z,0
2018-05-03T03:45:54.899Z,0
2018-05-03T03:46:56.289Z,0
2018-05-03T03:47:57.678Z,0
2018-05-03T03:48:59.071Z,0
2018-05-03T03:50:00.467Z,0
2018-05-03T03:51:01.856Z,0
2018-05-03T03:52:03.243Z,0
2018-05-03T03:53:04.638Z,0
2018-05-03T03:54:06.021Z,0
2018-05-03T03:55:07.413Z,0
2018-05-03T03:56:08.801Z,0
2018-05-03T03:57:10.192Z,0
2018-05-03T03:58:11.580Z,0
2018-05-03T03:59:12.982Z,0
2018-05-03T04:00:14.354Z,0
2018-05-03T04:01:15.773Z,0
2018-05-03T04:02:17.164Z,0
2018-05-03T04:03:18.558Z,0
2018-05-03T04:04:19.950Z,0
2018-05-03T04:05:21.342Z,0
2018-05-03T04:06:22.729Z,0
2018-05-03T04:07:24.120Z,0
2018-05-03T04:08:25.580Z,0
2018-05-03T04:09:26.899Z,0
2018-05-03T04:10:28.290Z,0
2018-05-03T04:11:29.684Z,0
2018-05-03T04:12:31.082Z,0
2018-05-03T04:13:32.472Z,0
2018-05-03T04:14:33.863Z,0
2018-05-03T04:15:35.268Z,0
2018-05-03T04:16:36.662Z,0
2018-05-03T04:17:38.056Z,0
2018-05-03T04:18:39.447Z,0
2018-05-03T04:19:40.864Z,0
2018-05-03T04:20:42.248Z,0
2018-05-03T04:21:43.650Z,5
2018-05-03T04:22:45.080Z,5
2018-05-03T04:23:46.469Z,5
2018-05-03T04:24:47.870Z,5
2018-05-03T04:25:49.264Z,5
2018-05-03T04:26:50.660Z,5
2018-05-03T04:27:52.071Z,5
2018-05-03T04:28:53.547Z,5
2018-05-03T04:29:54.937Z,5
2018-05-03T04:30:56.342Z,11
2018-05-03T04:31:57.734Z,11
2018-05-03T04:32:59.131Z,11
2018-05-03T04:34:00.525Z,11
2018-05-03T04:35:01.916Z,11
2018-05-03T04:36:03.314Z,11
2018-05-03T04:37:04.698Z,11
2018-05-03T04:38:06.091Z,16
2018-05-03T04:39:07.485Z,16
2018-05-03T04:40:08.879Z,16
2018-05-03T04:41:10.279Z,16
2018-05-03T04:42:11.680Z,16
2018-05-03T04:43:13.071Z,16
2018-05-03T04:44:14.470Z,16
2018-05-03T04:45:15.871Z,16
2018-05-03T04:46:17.270Z,22
2018-05-03T04:47:18.692Z,22
2018-05-03T04:48:20.096Z,22
2018-05-03T04:49:21.480Z,22
2018-05-03T04:50:22.871Z,22
2018-05-03T04:51:24.264Z,22
2018-05-03T04:52:25.661Z,28
2018-05-03T04:53:27.050Z,28
2018-05-03T04:54:28.448Z,28
2018-05-03T04:55:29.838Z,28
2018-05-03T04:56:31.230Z,28
2018-05-03T04:57:32.621Z,28
2018-05-03T04:58:34.017Z,33
2018-05-03T04:59:35.419Z,33
2018-05-03T05:00:36.809Z,33
2018-05-03T05:01:38.205Z,33
2018-05-03T05:02:39.595Z,33
2018-05-03T05:03:40.988Z,39
2018-05-03T05:04:42.471Z,39
2018-05-03T05:05:43.783Z,39
2018-05-03T05:06:45.182Z,39
2018-05-03T05:07:46.570Z,39
2018-05-03T05:08:47.964Z,39
2018-05-03T05:09:49.356Z,45
2018-05-03T05:10:50.751Z,45
2018-05-03T05:11:52.145Z,45
2018-05-03T05:12:53.537Z,45
2018-05-03T05:13:54.935Z,45
2018-05-03T05:14:56.321Z,45
2018-05-03T05:15:57.721Z,45
2018-05-03T05:16:59.105Z,45
2018-05-03T05:18:00.545Z,45
2018-05-03T05:19:01.975Z,45
2018-05-03T05:20:03.361Z,50
2018-05-03T05:21:04.760Z,50
2018-05-03T05:22:06.157Z,50
2018-05-03T05:23:07.552Z,50
2018-05-03T05:24:08.970Z,56
2018-05-03T05:25:10.342Z,56
2018-05-03T05:26:11.736Z,56
2018-05-03T05:27:13.131Z,56
2018-05-03T05:28:14.575Z,56
2018-05-03T05:29:15.968Z,56
2018-05-03T05:30:17.362Z,56
2018-05-03T05:31:18.755Z,61
2018-05-03T05:32:20.167Z,61
2018-05-03T05:33:21.559Z,61
2018-05-03T05:34:22.954Z,61
2018-05-03T05:35:24.349Z,61
2018-05-03T05:36:25.744Z,67
2018-05-03T05:37:27.141Z,61
2018-05-03T05:38:28.549Z,61
2018-05-03T05:39:29.943Z,61
2018-05-03T05:40:31.335Z,61
2018-05-03T05:41:32.735Z,67
2018-05-03T05:42:34.129Z,67
2018-05-03T05:43:35.541Z,67
2018-05-03T05:44:36.934Z,67
2018-05-03T05:45:38.412Z,67
2018-05-03T05:46:39.808Z,67
2018-05-03T05:47:41.203Z,67
2018-05-03T05:48:42.601Z,67
2018-05-03T05:49:43.998Z,73
2018-05-03T05:50:45.391Z,67
2018-05-03T05:51:46.787Z,67
2018-05-03T05:52:48.184Z,67
2018-05-03T05:53:49.574Z,67
2018-05-03T05:54:50.988Z,73
2018-05-03T05:55:52.383Z,73
2018-05-03T05:56:53.779Z,78
2018-05-03T05:57:55.172Z,78
2018-05-03T05:58:56.568Z,78
2018-05-03T05:59:57.962Z,73
2018-05-03T06:00:59.355Z,73
2018-05-03T06:02:00.755Z,73
2018-05-03T06:03:02.151Z,73
2018-05-03T06:04:03.549Z,73
2018-05-03T06:05:04.943Z,78
2018-05-03T06:06:06.340Z,73
2018-05-03T06:07:07.730Z,73
2018-05-03T06:08:09.182Z,73
2018-05-03T06:09:10.631Z,73
2018-05-03T06:10:12.027Z,78
2018-05-03T06:11:13.421Z,84
2018-05-03T06:12:14.885Z,84
2018-05-03T06:13:16.217Z,84
2018-05-03T06:14:17.614Z,78
2018-05-03T06:15:19.001Z,84
2018-05-03T06:16:20.399Z,84
2018-05-03T06:17:21.792Z,84
2018-05-03T06:18:23.189Z,84
2018-05-03T06:19:24.582Z,84
2018-05-03T06:20:26.006Z,84
2018-05-03T06:21:27.398Z,84
2018-05-03T06:22:28.789Z,84
2018-05-03T06:23:30.183Z,90
2018-05-03T06:24:31.580Z,84
2018-05-03T06:25:32.975Z,84
2018-05-03T06:26:34.384Z,84
2018-05-03T06:27:35.767Z,84
2018-05-03T06:28:37.164Z,84
2018-05-03T06:29:38.558Z,84
2018-05-03T06:30:39.956Z,84
2018-05-03T06:31:41.349Z,84
2018-05-03T06:32:42.743Z,84
2018-05-03T06:33:44.139Z,84
2018-05-03T06:34:45.536Z,84
2018-05-03T06:35:46.928Z,78
2018-05-03T06:36:48.324Z,78
2018-05-03T06:37:49.715Z,84
2018-05-03T06:38:51.123Z,84
2018-05-03T06:39:52.503Z,84
2018-05-03T06:40:53.900Z,84
2018-05-03T06:41:55.294Z,84
2018-05-03T06:42:56.691Z,84
2018-05-03T06:43:58.083Z,90
2018-05-03T06:44:59.477Z,95
2018-05-03T06:46:00.870Z,95
2018-05-03T06:47:02.270Z,101
2018-05-03T06:48:03.665Z,101
2018-05-03T06:49:05.143Z,101
2018-05-03T06:50:06.539Z,101
2018-05-03T06:51:07.936Z,95
2018-05-03T06:52:09.338Z,95
2018-05-03T06:53:10.744Z,95
2018-05-03T06:54:12.139Z,95
2018-05-03T06:55:13.530Z,84
2018-05-03T06:56:14.927Z,84
2018-05-03T06:57:16.345Z,84
2018-05-03T06:58:17.731Z,95
2018-05-03T06:59:19.129Z,95
2018-05-03T07:00:20.522Z,101
2018-05-03T07:01:21.923Z,101
2018-05-03T07:02:23.322Z,106
2018-05-03T07:03:24.722Z,106
2018-05-03T07:04:26.125Z,101
2018-05-03T07:05:27.507Z,106
2018-05-03T07:06:28.903Z,106
2018-05-03T07:07:30.297Z,101
2018-05-03T07:08:31.697Z,101
2018-05-03T07:09:33.091Z,106
2018-05-03T07:10:34.490Z,95
2018-05-03T07:11:35.889Z,106
2018-05-03T07:12:37.281Z,106
2018-05-03T07:13:38.675Z,95
2018-05-03T07:14:40.084Z,112
2018-05-03T07:15:41.473Z,112
2018-05-03T07:16:42.872Z,106
2018-05-03T07:17:44.266Z,112
2018-05-03T07:18:45.682Z,118
2018-05-03T07:19:47.076Z,112
2018-05-03T07:20:48.471Z,101
2018-05-03T07:21:49.874Z,118
2018-05-03T07:22:51.269Z,106
2018-05-03T07:23:52.690Z,112
2018-05-03T07:24:54.064Z,123
2018-05-03T07:25:55.461Z,123
2018-05-03T07:26:56.856Z,123
2018-05-03T07:27:58.251Z,129
2018-05-03T07:28:59.651Z,123
2018-05-03T07:30:01.069Z,123
2018-05-03T07:31:02.467Z,118
2018-05-03T07:32:03.868Z,112
2018-05-03T07:33:05.271Z,112
2018-05-03T07:34:06.666Z,112
2018-05-03T07:35:08.057Z,112
2018-05-03T07:36:09.460Z,118
2018-05-03T07:37:10.876Z,129
2018-05-03T07:38:12.277Z,129
2018-05-03T07:39:13.675Z,151
2018-05-03T07:40:15.072Z,140
2018-05-03T07:41:16.466Z,123
2018-05-03T07:42:17.863Z,123
2018-05-03T07:43:19.256Z,118
2018-05-03T07:44:20.657Z,112
2018-05-03T07:45:22.133Z,118
2018-05-03T07:46:23.538Z,118
2018-05-03T07:47:24.936Z,118
2018-05-03T07:48:26.391Z,123
2018-05-03T07:49:27.728Z,129
2018-05-03T07:50:29.135Z,146
2018-05-03T07:51:31.494Z,123
2018-05-03T07:52:32.958Z,129
2018-05-03T07:53:34.288Z,129
2018-05-03T07:54:35.692Z,129
2018-05-03T07:55:37.095Z,129
2018-05-03T07:56:38.577Z,135
2018-05-03T07:57:39.887Z,135
2018-05-03T07:58:41.283Z,135
2018-05-03T07:59:42.772Z,168
2018-05-03T08:00:44.082Z,185
2018-05-03T08:01:45.481Z,180
2018-05-03T08:02:46.873Z,180
2018-05-03T08:03:48.270Z,168
2018-05-03T08:04:49.668Z,185
2018-05-03T08:05:51.070Z,168
2018-05-03T08:06:52.471Z,157
2018-05-03T08:07:53.864Z,163
2018-05-03T08:08:55.270Z,196
2018-05-03T08:09:56.668Z,180
2018-05-03T08:10:58.093Z,168
2018-05-03T08:11:59.473Z,163
2018-05-03T08:13:00.857Z,174
2018-05-03T08:14:02.256Z,180
2018-05-03T08:15:03.659Z,180
2018-05-03T08:16:05.054Z,168
2018-05-03T08:17:06.528Z,180
2018-05-03T08:18:07.841Z,185
2018-05-03T08:19:09.238Z,185
2018-05-03T08:20:10.635Z,180
2018-05-03T08:21:12.036Z,185
2018-05-03T08:22:13.436Z,191
2018-05-03T08:23:14.831Z,202
2018-05-03T08:24:16.227Z,208
2018-05-03T08:25:17.628Z,219
2018-05-03T08:26:19.025Z,196
2018-05-03T08:27:20.427Z,196
2018-05-03T08:28:21.822Z,208
2018-05-03T08:29:23.229Z,180
2018-05-03T08:30:24.623Z,174
2018-05-03T08:31:26.033Z,180
2018-05-03T08:32:27.474Z,185
2018-05-03T08:33:28.873Z,180
2018-05-03T08:34:30.280Z,196
2018-05-03T08:35:31.665Z,191
2018-05-03T08:36:33.062Z,208
2018-05-03T08:37:34.459Z,202
2018-05-03T08:38:35.856Z,230
2018-05-03T08:39:37.257Z,219
2018-05-03T08:40:38.652Z,208
2018-05-03T08:41:40.048Z,247
2018-05-03T08:42:41.448Z,253
2018-05-03T08:43:42.844Z,264
2018-05-03T08:44:44.238Z,230
2018-05-03T08:45:45.632Z,191
2018-05-03T08:46:47.031Z,213
2018-05-03T08:47:48.430Z,236
2018-05-03T08:48:49.829Z,247
2018-05-03T08:49:51.227Z,270
2018-05-03T08:50:52.625Z,241
2018-05-03T08:51:54.024Z,213
2018-05-03T08:52:55.423Z,191
2018-05-03T08:53:56.819Z,196
2018-05-03T08:54:58.220Z,202
2018-05-03T08:55:59.617Z,191
2018-05-03T08:57:01.016Z,196
2018-05-03T08:58:02.427Z,225
2018-05-03T08:59:03.818Z,213
2018-05-03T09:00:05.215Z,225
2018-05-03T09:01:06.606Z,230
2018-05-03T09:02:08.020Z,196
2018-05-03T09:03:09.420Z,208
2018-05-03T09:04:10.818Z,208
2018-05-03T09:05:12.216Z,236
2018-05-03T09:06:13.612Z,241
2018-05-03T09:07:15.017Z,241
2018-05-03T09:08:16.405Z,258
2018-05-03T09:09:17.803Z,298
2018-05-03T09:10:19.205Z,196
2018-05-03T09:11:20.606Z,196
2018-05-03T09:12:22.005Z,213
2018-05-03T09:13:23.401Z,213
2018-05-03T09:14:24.812Z,264
2018-05-03T09:15:26.214Z,343
2018-05-03T09:16:27.610Z,337
2018-05-03T09:17:29.007Z,320
2018-05-03T09:18:30.420Z,247
2018-05-03T09:19:31.820Z,286
2018-05-03T09:20:33.259Z,286
2018-05-03T09:21:34.668Z,264
2018-05-03T09:22:36.065Z,253
2018-05-03T09:23:37.470Z,298
2018-05-03T09:24:38.860Z,264
2018-05-03T09:25:40.260Z,253
2018-05-03T09:26:41.660Z,225
2018-05-03T09:27:43.058Z,343
2018-05-03T09:28:44.451Z,382
2018-05-03T09:29:45.858Z,298
2018-05-03T09:30:47.252Z,292
2018-05-03T09:31:48.651Z,258
2018-05-03T09:32:50.048Z,303
2018-05-03T09:33:51.448Z,303
2018-05-03T09:34:52.846Z,315
2018-05-03T09:35:54.244Z,309
2018-05-03T09:36:55.642Z,331
2018-05-03T09:37:57.038Z,281
2018-05-03T09:38:58.436Z,247
2018-05-03T09:39:59.835Z,241
2018-05-03T09:41:01.241Z,247
2018-05-03T09:42:02.656Z,264
2018-05-03T09:43:04.047Z,264
2018-05-03T09:44:05.451Z,320
2018-05-03T09:45:06.850Z,303
2018-05-03T09:46:08.248Z,281
2018-05-03T09:47:09.647Z,264
2018-05-03T09:48:11.046Z,281
2018-05-03T09:49:12.451Z,275
2018-05-03T09:50:13.848Z,275
2018-05-03T09:51:15.246Z,275
2018-05-03T09:52:16.643Z,309
2018-05-03T09:53:18.046Z,354
2018-05-03T09:54:19.444Z,360
2018-05-03T09:55:20.850Z,337
2018-05-03T09:56:22.248Z,309
2018-05-03T09:57:23.650Z,303
2018-05-03T09:58:25.043Z,315
2018-05-03T09:59:26.469Z,343
2018-05-03T10:00:27.841Z,405
2018-05-03T10:01:29.243Z,450
2018-05-03T10:02:30.659Z,438
2018-05-03T10:03:32.060Z,410
2018-05-03T10:04:33.455Z,444
2018-05-03T10:05:34.868Z,472
2018-05-03T10:06:36.266Z,489
2018-05-03T10:07:37.671Z,489
2018-05-03T10:08:39.147Z,500
2018-05-03T10:09:40.548Z,489
2018-05-03T10:10:41.944Z,506
2018-05-03T10:11:43.341Z,444
2018-05-03T10:12:44.740Z,376
2018-05-03T10:13:46.138Z,360
2018-05-03T10:14:47.540Z,337
2018-05-03T10:15:48.937Z,343
2018-05-03T10:16:50.351Z,309
2018-05-03T10:17:51.738Z,382
2018-05-03T10:18:53.138Z,466
2018-05-03T10:19:54.540Z,348
2018-05-03T10:20:55.946Z,427
2018-05-03T10:21:57.346Z,416
2018-05-03T10:22:58.747Z,348
2018-05-03T10:24:00.149Z,331
2018-05-03T10:25:01.548Z,326
2018-05-03T10:26:02.947Z,360
2018-05-03T10:27:04.345Z,399
2018-05-03T10:28:05.753Z,466
2018-05-03T10:29:07.148Z,405
2018-05-03T10:30:08.568Z,410
2018-05-03T10:31:09.957Z,410
2018-05-03T10:32:11.357Z,382
2018-05-03T10:33:12.756Z,382
2018-05-03T10:34:14.152Z,421
2018-05-03T10:35:15.553Z,506
2018-05-03T10:36:16.980Z,410
2018-05-03T10:37:18.356Z,523
2018-05-03T10:38:19.762Z,405
2018-05-03T10:39:21.155Z,444
2018-05-03T10:40:22.561Z,388
2018-05-03T10:41:23.959Z,421
2018-05-03T10:42:25.359Z,461
2018-05-03T10:43:26.765Z,703
2018-05-03T10:44:28.165Z,714
2018-05-03T10:45:29.567Z,855
2018-05-03T10:46:30.970Z,821
2018-05-03T10:47:32.374Z,900
2018-05-03T10:48:33.776Z,843
2018-05-03T10:49:35.180Z,973
2018-05-03T10:50:36.591Z,1288
2018-05-03T10:51:37.995Z,1023
2018-05-03T10:52:39.405Z,1130
2018-05-03T10:53:40.811Z,1096
2018-05-03T10:54:42.212Z,1305
2018-05-03T10:55:43.724Z,1209
2018-05-03T10:56:45.194Z,1096
2018-05-03T10:57:46.601Z,939
2018-05-03T10:58:48.004Z,961
2018-05-03T10:59:49.410Z,922
2018-05-03T11:00:50.814Z,1192
2018-05-03T11:01:52.216Z,877
2018-05-03T11:02:53.622Z,990
2018-05-03T11:03:55.026Z,995
2018-05-03T11:04:56.429Z,978
2018-05-03T11:05:57.832Z,748
2018-05-03T11:06:59.238Z,753
2018-05-03T11:08:00.638Z,601
2018-05-03T11:09:02.041Z,720
2018-05-03T11:10:03.445Z,838
2018-05-03T11:11:04.938Z,635
2018-05-03T11:12:06.262Z,905
2018-05-03T11:13:07.666Z,956
2018-05-03T11:14:09.070Z,770
2018-05-03T11:15:10.475Z,798
2018-05-03T11:16:11.875Z,708
2018-05-03T11:17:13.278Z,708
2018-05-03T11:18:14.680Z,545
2018-05-03T11:19:16.085Z,714
2018-05-03T11:20:17.490Z,832
2018-05-03T11:21:18.891Z,894
2018-05-03T11:22:20.292Z,753
2018-05-03T11:23:21.692Z,568
2018-05-03T11:24:23.095Z,455
2018-05-03T11:25:24.494Z,517
2018-05-03T11:26:25.910Z,472
2018-05-03T11:27:27.312Z,534
2018-05-03T11:28:28.720Z,573
2018-05-03T11:29:30.115Z,675
2018-05-03T11:30:31.522Z,798
2018-05-03T11:31:33.023Z,877
2018-05-03T11:32:34.335Z,815
2018-05-03T11:33:35.739Z,736
2018-05-03T11:34:37.143Z,708
2018-05-03T11:35:38.546Z,624
2018-05-03T11:36:40.001Z,534
2018-05-03T11:37:41.352Z,618
2018-05-03T11:38:42.752Z,545
2018-05-03T11:39:44.155Z,562
2018-05-03T11:40:45.552Z,551
2018-05-03T11:41:46.958Z,624
2018-05-03T11:42:48.416Z,669
2018-05-03T11:43:50.165Z,624
2018-05-03T11:44:51.559Z,556
2018-05-03T11:45:52.961Z,500
2018-05-03T11:46:54.364Z,455
2018-05-03T11:47:55.765Z,540
2018-05-03T11:48:57.375Z,534
2018-05-03T11:49:58.773Z,590
2018-05-03T11:51:00.181Z,613
2018-05-03T11:52:01.584Z,815
2018-05-03T11:53:03.060Z,798
2018-05-03T11:54:04.423Z,675
2018-05-03T11:55:05.825Z,562
2018-05-03T11:56:07.230Z,562
2018-05-03T11:57:08.631Z,416
2018-05-03T11:58:10.032Z,478
2018-05-03T11:59:11.537Z,455
2018-05-03T12:00:12.836Z,573
2018-05-03T12:01:14.239Z,618
2018-05-03T12:02:15.649Z,652
2018-05-03T12:03:17.178Z,849
2018-05-03T12:04:18.682Z,793
2018-05-03T12:05:20.147Z,826
2018-05-03T12:06:21.541Z,720
2018-05-03T12:07:22.992Z,697
2018-05-03T12:08:24.394Z,613
2018-05-03T12:09:25.806Z,630
2018-05-03T12:10:27.211Z,866
2018-05-03T12:11:28.613Z,776
2018-05-03T12:12:30.016Z,725
2018-05-03T12:13:31.582Z,697
2018-05-03T12:14:32.983Z,731
2018-05-03T12:15:34.387Z,601
2018-05-03T12:16:35.785Z,613
2018-05-03T12:17:37.188Z,731
2018-05-03T12:18:38.590Z,720
2018-05-03T12:19:40.017Z,810
2018-05-03T12:20:41.417Z,635
2018-05-03T12:21:42.822Z,618
2018-05-03T12:22:44.228Z,697
2018-05-03T12:23:45.644Z,635
2018-05-03T12:24:47.047Z,568
2018-05-03T12:25:48.484Z,472
2018-05-03T12:26:49.861Z,393
2018-05-03T12:27:51.289Z,388
2018-05-03T12:28:52.692Z,410
2018-05-03T12:29:54.140Z,433
2018-05-03T12:30:55.650Z,405
2018-05-03T12:31:57.057Z,450
2018-05-03T12:32:58.466Z,545
2018-05-03T12:33:59.865Z,585
2018-05-03T12:35:01.271Z,433
2018-05-03T12:36:02.675Z,405
2018-05-03T12:37:04.075Z,365
2018-05-03T12:38:05.479Z,393
2018-05-03T12:39:06.910Z,399
2018-05-03T12:40:08.313Z,444
2018-05-03T12:41:09.716Z,438
2018-05-03T12:42:11.118Z,461
2018-05-03T12:43:12.545Z,489
2018-05-03T12:44:13.947Z,568
2018-05-03T12:45:15.349Z,663
2018-05-03T12:46:16.748Z,641
2018-05-03T12:47:18.159Z,652
2018-05-03T12:48:19.557Z,613
2018-05-03T12:49:20.989Z,607
2018-05-03T12:50:22.390Z,669
2018-05-03T12:51:23.801Z,585
2018-05-03T12:52:25.203Z,568
2018-05-03T12:53:26.606Z,562
2018-05-03T12:54:28.012Z,416
2018-05-03T12:55:29.410Z,421
2018-05-03T12:56:30.816Z,489
2018-05-03T12:57:32.216Z,461
2018-05-03T12:58:33.616Z,506
2018-05-03T12:59:35.022Z,427
2018-05-03T13:00:36.426Z,483
2018-05-03T13:01:37.838Z,444
2018-05-03T13:02:39.239Z,466
2018-05-03T13:03:40.659Z,393
2018-05-03T13:04:42.061Z,410
2018-05-03T13:05:43.465Z,416
2018-05-03T13:06:44.863Z,444
2018-05-03T13:07:46.286Z,371
2018-05-03T13:08:47.687Z,410
2018-05-03T13:09:49.086Z,382
2018-05-03T13:10:50.488Z,360
2018-05-03T13:11:51.888Z,382
2018-05-03T13:12:53.292Z,444
2018-05-03T13:13:54.699Z,421
2018-05-03T13:14:56.101Z,388
2018-05-03T13:15:57.500Z,354
2018-05-03T13:16:58.903Z,753
2018-05-03T13:18:00.318Z,691
2018-05-03T13:19:01.772Z,427
2018-05-03T13:20:03.208Z,483
2018-05-03T13:21:04.571Z,556
2018-05-03T13:22:06.003Z,500
2018-05-03T13:23:07.407Z,427
2018-05-03T13:24:08.807Z,399
2018-05-03T13:25:10.208Z,348
2018-05-03T13:26:11.610Z,416
2018-05-03T13:27:13.007Z,427
2018-05-03T13:28:14.413Z,455
2018-05-03T13:29:15.821Z,466
2018-05-03T13:30:17.226Z,472
2018-05-03T13:31:18.626Z,376
2018-05-03T13:32:20.026Z,433
2018-05-03T13:33:21.426Z,624
2018-05-03T13:34:22.859Z,433
2018-05-03T13:35:24.230Z,506
2018-05-03T13:36:25.640Z,399
2018-05-03T13:37:27.045Z,371
2018-05-03T13:38:28.444Z,343
2018-05-03T13:39:29.844Z,320
2018-05-03T13:40:31.256Z,343
2018-05-03T13:41:32.659Z,331
2018-05-03T13:42:34.057Z,348
2018-05-03T13:43:35.455Z,343
2018-05-03T13:44:36.861Z,388
2018-05-03T13:45:38.261Z,371
2018-05-03T13:46:39.665Z,298
2018-05-03T13:47:41.097Z,326
2018-05-03T13:48:42.462Z,343
2018-05-03T13:49:43.866Z,354
2018-05-03T13:50:45.267Z,298
2018-05-03T13:51:46.671Z,360
2018-05-03T13:52:48.075Z,433
2018-05-03T13:53:49.471Z,506
2018-05-03T13:54:50.872Z,455
2018-05-03T13:55:52.278Z,466
2018-05-03T13:56:53.686Z,410
2018-05-03T13:57:55.084Z,348
2018-05-03T13:58:56.486Z,331
2018-05-03T13:59:57.884Z,360
2018-05-03T14:00:59.287Z,466
2018-05-03T14:02:00.700Z,489
2018-05-03T14:03:02.102Z,466
2018-05-03T14:04:03.504Z,343
2018-05-03T14:05:04.906Z,354
2018-05-03T14:06:06.367Z,438
2018-05-03T14:07:07.816Z,354
2018-05-03T14:08:09.165Z,337
2018-05-03T14:09:10.571Z,337
2018-05-03T14:10:11.963Z,343
2018-05-03T14:11:13.364Z,405
2018-05-03T14:12:14.768Z,427
2018-05-03T14:13:16.171Z,511
2018-05-03T14:14:17.570Z,337
2018-05-03T14:15:18.972Z,303
2018-05-03T14:16:20.368Z,275
2018-05-03T14:17:21.766Z,270
2018-05-03T14:18:23.165Z,236
2018-05-03T14:19:24.567Z,241
2018-05-03T14:20:25.972Z,230
2018-05-03T14:21:27.372Z,225
2018-05-03T14:22:28.771Z,230
2018-05-03T14:23:30.169Z,185
2018-05-03T14:24:31.569Z,185
2018-05-03T14:25:32.967Z,174
2018-05-03T14:26:34.370Z,185
2018-05-03T14:27:35.778Z,185
2018-05-03T14:28:37.178Z,202